Siasconset, MA (02564)

11:20 PM EDT on August 30, 2016 (GMT -0400)
Sconset | | Change Station

Elev 100 ft 41.28 °N, 69.96 °W | Updated 13 minutes ago

Clear
Clear
66.5 °F
Feels Like 66.5 °F
N
8.0
Wind Variable Wind from SSW

Today
High -- | Low -- °F
--% Chance of Precip.
Yesterday
High -- | Low -- °F
Precip. -- in
Pressure 30.07 in
Visibility 10.0 miles
Clouds Clear
Dew Point 65 °F
Humidity 93%
Rainfall 0.00 in
Snow Depth Not available.
6:04 AM 7:15 PM
Waning Crescent, 2% visible
METAR KACK 310253Z AUTO 17008KT 10SM CLR 19/17 A3007 RMK AO2 SLP183 T01940172 50001 TSNO
Pressure 30.07 in
Visibility 10.0 miles
Clouds Clear
Dew Point 65 °F
Humidity 93%
Rainfall 0.00 in
Snow Depth Not available.
6:04 AM 7:15 PM
Waning Crescent, 2% visible
METAR KACK 310253Z AUTO 17008KT 10SM CLR 19/17 A3007 RMK AO2 SLP183 T01940172 50001 TSNO

10-Day Weather Forecast

Almanac

Astronomy

Aug. 30, 2016 Rise Set
Actual Time
Civil Twilight
Nautical Twilight
Astronomical Twilight
Moon
Length of Visible Light
Length of Day
Tomorrow will be .
, % of the Moon is Illuminated

Today's Extremes

State Highs State Lows

Community

WunderPhotos

Upload Photos

1,936,016 photos uploaded!

WunderBlog® & News

Nearby

Air Quality

  Air Quality AQ Index Pollutant
Not available.

Snow Depth

Station Depth Elevation

Earthquake Activity

City Distance Mag. Time & Date
Minimum magnitude displayed is 2.5.

Coastal Water Temperatures

Place Temperature

Stations

Nearby Weather Stations

Station Location Temp. Windchill Dew Point Humidity Wind Precip. Elev Updated Type
                   

Watches & Warnings

There are currently no watches in effect.